This is the latest recevied weather packets stored in our database for station/object KQ4LLM. If no packets are shown the sender has not sent any weather packets the latest 10 day(s).
| Time | Temp. | Humidity | Pressure | Rain* | Wind** | Luminosity | Snow |
|---|---|---|---|---|---|---|---|
| 1777549588 | 15.56° C | 99% | - | 1.78 mm | - | - | - |
| 1777549285 | 15.56° C | 99% | - | 1.27 mm | - | - | - |
| 1777548982 | 15.56° C | 99% | - | 3.05 mm | - | - | - |
| 1777548678 | 15.56° C | 99% | - | 3.05 mm | - | - | - |
| 1777548376 | 15.56° C | 99% | - | 3.05 mm | - | - | - |
| 1777548073 | 15.56° C | 99% | - | 3.56 mm | - | - | - |
| 1777547768 | 15.56° C | 99% | - | 4.83 mm | - | - | - |
| 1777547464 | 15.56° C | 99% | - | 4.83 mm | - | - | - |
| 1777547163 | 15.56° C | 99% | - | 7.11 mm | - | - | - |
| 1777546859 | 15.56° C | 99% | - | 7.11 mm | - | - | - |
| 1777546556 | 15.56° C | 99% | - | 6.1 mm | - | - | - |
| 1777546253 | 16.11° C | 99% | - | 7.87 mm | - | - | - |
| 1777545950 | 16.11° C | 98% | - | 7.87 mm | - | - | - |
| 1777545646 | 16.11° C | 98% | - | 8.89 mm | - | - | - |
| 1777545343 | 16.11° C | 98% | - | 7.87 mm | - | - | - |
| 1777545040 | 16.11° C | 98% | - | 8.89 mm | - | - | - |
| 1777544737 | 16.11° C | 97% | - | 10.16 mm | - | - | - |
| 1777544432 | 16.11° C | 97% | - | 8.89 mm | - | - | - |
| 1777544128 | 16.11° C | 96% | - | 6.1 mm | - | - | - |
| 1777543827 | 16.11° C | 95% | - | 7.87 mm | - | - | - |
| 1777543522 | 16.67° C | 93% | - | 29.46 mm | - | - | - |
| 1777543219 | 17.22° C | 89% | - | 22.86 mm | - | - | - |
| 1777542914 | 17.78° C | 78% | - | 0 mm | - | - | - |
| 1777542612 | 17.78° C | 79% | - | 0 mm | - | - | - |
| 1777542308 | 17.78° C | 76% | - | 0 mm | - | - | - |
* Rain latest hour (hover to see other rain measurements)
** Current wind speed in m/s (hover to see current wind gust speed)